Time;durP1;ratioP1;P1;durP2;ratioP2;P2;SDS_P1;SDS_P2;PMS_P1;PMS_P2;Temp;Humidity;BMP_temperature;BMP_pressure;BME280_temperature;BME280_humidity;BME280_pressure;Samples;Min_cycle;Max_cycle;Signal;HPM_P1;HPM_P2
2023/01/24 00:01:18;;;;;;;26.00;12.70;;;;;;;;;;5089263;27;20039;-70
2023/01/24 00:03:43;;;;;;;27.97;12.67;;;;;;;;;;5095047;27;20476;-68
2023/01/24 00:06:09;;;;;;;33.17;12.30;;;;;;;;;;5094194;27;20048;-67
2023/01/24 00:08:34;;;;;;;30.30;13.07;;;;;;;;;;5095309;27;20111;-68
2023/01/24 00:11:04;;;;;;;26.17;12.10;;;;;;;;;;5077951;27;20039;-68
2023/01/24 00:13:30;;;;;;;27.02;12.25;;;;;;;;;;5131663;27;20035;-68
2023/01/24 00:16:13;;;;;;;27.40;13.17;;;;;;;;;;5114339;27;20041;-68
2023/01/24 00:18:39;;;;;;;28.63;12.17;;;;;;;;;;5109237;27;20032;-69
2023/01/24 00:21:09;;;;;;;27.37;11.80;;;;;;;;;;5096673;27;20050;-68
2023/01/24 00:23:36;;;;;;;25.83;12.30;;;;;;;;;;5096642;27;20031;-69
2023/01/24 00:26:04;;;;;;;29.10;11.43;;;;;;;;;;5114339;27;20035;-69
2023/01/24 00:28:30;;;;;;;26.27;11.17;;;;;;;;;;5114693;27;20042;-68
2023/01/24 00:30:56;;;;;;;23.43;11.40;;;;;;;;;;5130765;27;20038;-68
2023/01/24 00:33:21;;;;;;;31.17;11.47;;;;;;;;;;5113609;27;20027;-68
2023/01/24 00:35:48;;;;;;;29.03;12.30;;;;;;;;;;5095789;27;20031;-69
2023/01/24 00:38:14;;;;;;;28.77;11.83;;;;;;;;;;5111213;28;20046;-69
2023/01/24 00:40:40;;;;;;;25.90;11.90;;;;;;;;;;5096415;27;20035;-68
2023/01/24 00:43:06;;;;;;;29.40;11.77;;;;;;;;;;5130645;27;20038;-69
2023/01/24 00:45:34;;;;;;;23.90;10.00;;;;;;;;;;5095962;27;20031;-68
2023/01/24 00:48:00;;;;;;;23.57;10.23;;;;;;;;;;5096798;27;20027;-68
2023/01/24 00:50:25;;;;;;;20.60;10.70;;;;;;;;;;5095452;27;20035;-69
2023/01/24 00:52:51;;;;;;;22.30;10.73;;;;;;;;;;5096281;27;20035;-69
2023/01/24 00:55:16;;;;;;;24.80;10.23;;;;;;;;;;5096765;27;20038;-69
2023/01/24 00:57:44;;;;;;;23.53;10.37;;;;;;;;;;5094968;28;20039;-70
2023/01/24 01:00:10;;;;;;;26.17;11.37;;;;;;;;;;5096336;27;20099;-70
2023/01/24 01:02:38;;;;;;;29.17;11.17;;;;;;;;;;5096095;27;20158;-70
2023/01/24 01:05:04;;;;;;;23.80;10.83;;;;;;;;;;5095028;27;20069;-70
2023/01/24 01:07:32;;;;;;;26.60;11.07;;;;;;;;;;5096829;27;20043;-69
2023/01/24 01:09:57;;;;;;;23.50;11.67;;;;;;;;;;5096270;27;20037;-69
2023/01/24 01:12:23;;;;;;;24.63;11.07;;;;;;;;;;5094831;27;20130;-69
2023/01/24 01:14:49;;;;;;;25.87;10.20;;;;;;;;;;5130145;27;20346;-69
2023/01/24 01:17:16;;;;;;;25.50;10.40;;;;;;;;;;5110651;28;20034;-69
2023/01/24 01:19:42;;;;;;;24.23;11.57;;;;;;;;;;5096077;28;20039;-68
2023/01/24 01:22:08;;;;;;;25.07;11.07;;;;;;;;;;5079687;28;20122;-68
2023/01/24 01:24:34;;;;;;;25.83;10.83;;;;;;;;;;5090291;28;20046;-69
2023/01/24 01:26:59;;;;;;;28.10;10.93;;;;;;;;;;5093885;28;20039;-68
2023/01/24 01:29:25;;;;;;;24.47;10.60;;;;;;;;;;5130264;28;20039;-70
2023/01/24 01:31:51;;;;;;;23.63;10.43;;;;;;;;;;5095450;28;20134;-67
2023/01/24 01:34:17;;;;;;;22.87;10.87;;;;;;;;;;5093105;28;20020;-69
2023/01/24 01:36:42;;;;;;;25.70;11.67;;;;;;;;;;5095888;28;20469;-69
2023/01/24 01:39:08;;;;;;;21.77;9.77;;;;;;;;;;5112637;28;20042;-69
2023/01/24 01:41:34;;;;;;;28.83;11.23;;;;;;;;;;5130562;28;20428;-68
2023/01/24 01:47:03;;;;;;;25.70;10.40;;;;;;;;;;5109692;28;20035;-68
2023/01/24 01:49:29;;;;;;;22.23;10.03;;;;;;;;;;5113344;28;20100;-66
2023/01/24 01:52:01;;;;;;;21.30;9.70;;;;;;;;;;5113225;28;20461;-70
2023/01/24 01:54:29;;;;;;;20.77;9.47;;;;;;;;;;5113338;28;20373;-70
2023/01/24 01:57:02;;;;;;;23.20;10.30;;;;;;;;;;5114401;27;20026;-70
2023/01/24 01:59:39;;;;;;;22.67;9.60;;;;;;;;;;5095312;27;20092;-68
2023/01/24 02:02:07;;;;;;;21.73;9.87;;;;;;;;;;5113713;27;20035;-70
2023/01/24 02:04:34;;;;;;;24.53;10.27;;;;;;;;;;5098615;27;20061;-70
2023/01/24 02:07:05;;;;;;;27.17;10.37;;;;;;;;;;5099730;27;20035;-69
2023/01/24 02:09:33;;;;;;;28.87;11.00;;;;;;;;;;5084429;27;20035;-69
2023/01/24 02:12:01;;;;;;;22.03;9.63;;;;;;;;;;5117944;27;20031;-67
2023/01/24 02:17:15;;;;;;;26.40;11.40;;;;;;;;;;5116674;27;20035;-69
2023/01/24 02:20:07;;;;;;;21.80;10.07;;;;;;;;;;5097403;27;20054;-69
2023/01/24 02:22:38;;;;;;;24.27;10.97;;;;;;;;;;5067547;27;20035;-69
2023/01/24 02:25:04;;;;;;;23.27;10.63;;;;;;;;;;5116397;27;20530;-70
2023/01/24 02:27:30;;;;;;;25.97;11.03;;;;;;;;;;5098815;27;20031;-71
2023/01/24 02:29:56;;;;;;;19.93;10.03;;;;;;;;;;5109520;27;20362;-69
2023/01/24 02:32:21;;;;;;;20.97;10.43;;;;;;;;;;5132933;27;20024;-68
2023/01/24 02:34:48;;;;;;;24.90;11.30;;;;;;;;;;5081857;27;20036;-70
2023/01/24 02:37:18;;;;;;;26.23;10.93;;;;;;;;;;5114050;27;20027;-70
2023/01/24 02:39:53;;;;;;;24.73;10.97;;;;;;;;;;5099469;27;20033;-69
2023/01/24 02:42:22;;;;;;;24.53;9.93;;;;;;;;;;5111656;27;20099;-67
2023/01/24 02:44:57;;;;;;;20.90;10.32;;;;;;;;;;5115846;27;20038;-68
2023/01/24 02:47:26;;;;;;;28.63;10.07;;;;;;;;;;5114358;27;20135;-69
2023/01/24 02:49:51;;;;;;;21.87;10.03;;;;;;;;;;5099066;27;20376;-68
2023/01/24 02:55:01;;;;;;;32.73;11.77;;;;;;;;;;5111779;27;20023;-69
2023/01/24 03:00:12;;;;;;;25.37;11.50;;;;;;;;;;5106944;27;20121;-69
2023/01/24 03:02:38;;;;;;;22.33;10.47;;;;;;;;;;5098572;27;20133;-71
2023/01/24 03:05:04;;;;;;;29.47;10.77;;;;;;;;;;5096530;27;20098;-70
2023/01/24 03:07:41;;;;;;;22.47;10.10;;;;;;;;;;5114619;27;20552;-69
2023/01/24 03:10:11;;;;;;;26.60;10.07;;;;;;;;;;5080202;27;20035;-69
2023/01/24 03:34:51;;;;;;;24.23;10.27;;;;;;;;;;5114184;27;20067;-73
2023/01/24 03:40:08;;;;;;;18.00;9.63;;;;;;;;;;5111842;28;20385;-69
2023/01/24 03:42:34;;;;;;;22.03;10.07;;;;;;;;;;5081005;27;20106;-69
2023/01/24 03:45:00;;;;;;;25.40;10.37;;;;;;;;;;5097306;27;20602;-69
2023/01/24 03:47:29;;;;;;;21.60;9.70;;;;;;;;;;5096482;27;20055;-70
2023/01/24 03:52:38;;;;;;;23.73;10.17;;;;;;;;;;5114602;27;20491;-68
2023/01/24 03:55:07;;;;;;;22.07;10.43;;;;;;;;;;5097305;27;20027;-68
2023/01/24 03:57:32;;;;;;;21.13;10.27;;;;;;;;;;5096835;27;20034;-68
2023/01/24 04:00:02;;;;;;;30.30;11.60;;;;;;;;;;5114541;27;20035;-69
2023/01/24 04:02:32;;;;;;;25.40;10.53;;;;;;;;;;5132533;27;20039;-68
2023/01/24 04:05:12;;;;;;;26.17;10.00;;;;;;;;;;5092070;27;20051;-72
2023/01/24 04:07:39;;;;;;;21.67;10.93;;;;;;;;;;5077874;27;20031;-68
2023/01/24 04:10:06;;;;;;;26.80;11.33;;;;;;;;;;5130227;27;20086;-69
2023/01/24 04:12:38;;;;;;;27.40;11.70;;;;;;;;;;5092529;27;20680;-68
2023/01/24 04:15:04;;;;;;;27.40;11.97;;;;;;;;;;5094860;27;20027;-68
2023/01/24 04:17:31;;;;;;;27.67;11.00;;;;;;;;;;5093620;27;20059;-67
2023/01/24 04:19:57;;;;;;;24.50;10.43;;;;;;;;;;5094335;28;20035;-68
2023/01/24 04:22:24;;;;;;;24.73;10.90;;;;;;;;;;5095620;27;20031;-68
2023/01/24 04:24:52;;;;;;;25.87;10.87;;;;;;;;;;5112459;27;20125;-69
2023/01/24 04:27:18;;;;;;;28.40;11.13;;;;;;;;;;5090848;28;20047;-70
2023/01/24 04:29:57;;;;;;;21.73;10.60;;;;;;;;;;5094504;27;20095;-68
2023/01/24 04:32:23;;;;;;;21.00;10.40;;;;;;;;;;5096430;27;20480;-67
2023/01/24 04:34:59;;;;;;;26.90;10.67;;;;;;;;;;5094636;27;20053;-69
2023/01/24 04:37:45;;;;;;;24.97;10.03;;;;;;;;;;5110867;27;20038;-69
2023/01/24 04:40:14;;;;;;;19.83;9.73;;;;;;;;;;5113438;27;20035;-68
2023/01/24 04:42:40;;;;;;;17.70;9.07;;;;;;;;;;5115429;27;20479;-68
2023/01/24 04:45:07;;;;;;;20.87;9.30;;;;;;;;;;5076400;27;20438;-68
2023/01/24 04:47:33;;;;;;;25.37;10.37;;;;;;;;;;5078042;27;20035;-68
2023/01/24 04:49:58;;;;;;;20.97;9.67;;;;;;;;;;5113408;27;20034;-68
2023/01/24 04:52:24;;;;;;;18.53;9.50;;;;;;;;;;5077305;27;20031;-68
2023/01/24 04:55:05;;;;;;;25.45;9.82;;;;;;;;;;5113539;27;20421;-69
2023/01/24 04:57:30;;;;;;;20.63;9.50;;;;;;;;;;5094730;27;20074;-69
2023/01/24 04:59:58;;;;;;;21.77;9.00;;;;;;;;;;5093983;27;20055;-69
2023/01/24 05:02:24;;;;;;;21.90;9.07;;;;;;;;;;5096520;27;20440;-68
2023/01/24 05:04:50;;;;;;;23.00;9.87;;;;;;;;;;5095330;28;20051;-68
2023/01/24 05:07:16;;;;;;;19.70;8.83;;;;;;;;;;5095779;27;20066;-68
2023/01/24 05:09:46;;;;;;;24.13;8.93;;;;;;;;;;5112010;27;20479;-68
2023/01/24 05:12:12;;;;;;;23.03;9.50;;;;;;;;;;5079057;28;20023;-68
2023/01/24 05:14:38;;;;;;;21.27;9.70;;;;;;;;;;5096711;27;20423;-69
2023/01/24 05:17:04;;;;;;;23.23;9.47;;;;;;;;;;5096541;27;20027;-68
2023/01/24 05:19:32;;;;;;;22.03;10.07;;;;;;;;;;5074710;28;20030;-69
2023/01/24 05:21:58;;;;;;;22.60;9.93;;;;;;;;;;5110969;28;20038;-69
2023/01/24 05:24:24;;;;;;;21.90;9.90;;;;;;;;;;5096649;28;20043;-68
2023/01/24 05:26:50;;;;;;;26.17;10.43;;;;;;;;;;5074154;28;20499;-68
2023/01/24 05:29:20;;;;;;;23.20;9.40;;;;;;;;;;5092050;28;20035;-68
2023/01/24 05:31:50;;;;;;;28.33;10.90;;;;;;;;;;5081620;27;20271;-68
2023/01/24 05:34:15;;;;;;;28.67;9.40;;;;;;;;;;5100747;27;20122;-70
2023/01/24 05:36:41;;;;;;;28.80;10.23;;;;;;;;;;5095775;27;20121;-70
2023/01/24 05:39:07;;;;;;;24.50;10.57;;;;;;;;;;5098754;27;20055;-71
2023/01/24 05:41:33;;;;;;;20.60;9.63;;;;;;;;;;5100358;27;20027;-69
2023/01/24 05:44:02;;;;;;;24.13;9.87;;;;;;;;;;5114085;27;20049;-70
2023/01/24 05:46:34;;;;;;;24.13;9.83;;;;;;;;;;5116048;27;20388;-70
2023/01/24 05:49:28;;;;;;;17.37;8.77;;;;;;;;;;5094587;27;20095;-70
2023/01/24 05:51:54;;;;;;;25.90;9.97;;;;;;;;;;5100257;27;20038;-70
2023/01/24 05:54:35;;;;;;;24.88;9.27;;;;;;;;;;5099990;27;20522;-70
2023/01/24 05:57:03;;;;;;;24.70;9.17;;;;;;;;;;5099573;27;20042;-70
2023/01/24 05:59:45;;;;;;;21.70;9.33;;;;;;;;;;5083573;27;20042;-70
2023/01/24 06:02:11;;;;;;;21.67;9.27;;;;;;;;;;5099967;27;20030;-69
2023/01/24 06:04:39;;;;;;;20.00;8.93;;;;;;;;;;5099282;27;20130;-70
2023/01/24 06:07:05;;;;;;;20.03;8.53;;;;;;;;;;5080638;27;20034;-70
2023/01/24 06:09:31;;;;;;;20.77;8.50;;;;;;;;;;5116823;27;20039;-68
2023/01/24 06:11:57;;;;;;;25.57;8.80;;;;;;;;;;5099987;27;20479;-71
2023/01/24 06:14:23;;;;;;;19.33;8.83;;;;;;;;;;5099344;27;20122;-69
2023/01/24 06:16:49;;;;;;;19.17;8.43;;;;;;;;;;5082634;27;20023;-70
2023/01/24 06:19:17;;;;;;;20.63;8.57;;;;;;;;;;5098762;27;20042;-69
2023/01/24 06:21:49;;;;;;;18.50;7.97;;;;;;;;;;5099604;27;20031;-71
2023/01/24 06:24:21;;;;;;;20.33;8.57;;;;;;;;;;5116433;27;20342;-70
2023/01/24 06:26:56;;;;;;;16.00;8.17;;;;;;;;;;5113750;27;20033;-70
2023/01/24 06:29:22;;;;;;;18.97;7.80;;;;;;;;;;5116294;27;20034;-70
2023/01/24 06:32:00;;;;;;;18.97;8.27;;;;;;;;;;5099431;27;20421;-70
2023/01/24 06:34:44;;;;;;;16.37;7.60;;;;;;;;;;5105059;27;20031;-70
2023/01/24 06:37:26;;;;;;;17.87;7.93;;;;;;;;;;5113492;27;20037;-70
2023/01/24 06:39:52;;;;;;;18.70;7.63;;;;;;;;;;5099252;27;20038;-70
2023/01/24 06:42:19;;;;;;;21.27;7.57;;;;;;;;;;5099129;27;20354;-70
2023/01/24 06:44:45;;;;;;;16.93;7.70;;;;;;;;;;5111784;27;20104;-69
2023/01/24 06:47:11;;;;;;;16.63;7.27;;;;;;;;;;5099011;27;20031;-71
2023/01/24 06:49:37;;;;;;;15.13;7.27;;;;;;;;;;5081209;27;20035;-70
2023/01/24 06:52:02;;;;;;;14.93;6.93;;;;;;;;;;5099072;27;20038;-71
2023/01/24 06:54:28;;;;;;;13.70;6.57;;;;;;;;;;5095414;28;20031;-70
2023/01/24 06:56:54;;;;;;;15.77;7.07;;;;;;;;;;5078387;27;20480;-68
2023/01/24 06:59:22;;;;;;;17.07;8.00;;;;;;;;;;5099113;27;20047;-70
2023/01/24 07:01:51;;;;;;;16.37;7.00;;;;;;;;;;5100572;27;20081;-69
2023/01/24 07:04:17;;;;;;;13.03;6.63;;;;;;;;;;5100263;27;20530;-70
2023/01/24 07:06:43;;;;;;;18.67;7.63;;;;;;;;;;5100354;27;20031;-70
2023/01/24 07:09:08;;;;;;;22.80;7.60;;;;;;;;;;5117525;27;20351;-69
2023/01/24 07:11:34;;;;;;;15.00;7.03;;;;;;;;;;5100324;27;20416;-69
2023/01/24 07:14:00;;;;;;;16.53;7.50;;;;;;;;;;5100615;27;20464;-69
2023/01/24 07:16:26;;;;;;;16.80;7.07;;;;;;;;;;5100158;27;20031;-69
2023/01/24 07:18:52;;;;;;;16.17;6.97;;;;;;;;;;5100164;27;20229;-70
2023/01/24 07:21:17;;;;;;;14.20;6.90;;;;;;;;;;5100113;27;20031;-70
2023/01/24 07:23:44;;;;;;;14.20;7.33;;;;;;;;;;5100381;27;20123;-70
2023/01/24 07:26:11;;;;;;;18.00;6.93;;;;;;;;;;5099919;27;20031;-71
2023/01/24 07:28:37;;;;;;;15.07;7.30;;;;;;;;;;5098611;27;20038;-70
2023/01/24 07:31:03;;;;;;;14.23;7.17;;;;;;;;;;5114528;27;20078;-70
2023/01/24 07:33:29;;;;;;;18.07;7.33;;;;;;;;;;5095495;28;20097;-70
2023/01/24 07:35:54;;;;;;;15.87;6.47;;;;;;;;;;5079614;28;20032;-71
2023/01/24 07:38:20;;;;;;;14.90;7.40;;;;;;;;;;5062833;28;20059;-71
2023/01/24 07:40:46;;;;;;;16.10;7.20;;;;;;;;;;5062833;28;20024;-71
2023/01/24 07:43:11;;;;;;;16.47;6.90;;;;;;;;;;5062702;28;20054;-70
2023/01/24 07:45:38;;;;;;;17.00;7.53;;;;;;;;;;5079408;28;20138;-70
2023/01/24 07:48:04;;;;;;;14.43;7.10;;;;;;;;;;5062874;28;20035;-71
2023/01/24 07:50:31;;;;;;;13.27;6.40;;;;;;;;;;5062950;28;20138;-70
2023/01/24 07:52:57;;;;;;;18.43;7.13;;;;;;;;;;5062438;28;20172;-70
2023/01/24 07:55:23;;;;;;;14.17;6.83;;;;;;;;;;5078950;28;20032;-71
2023/01/24 07:57:48;;;;;;;14.67;7.60;;;;;;;;;;5062616;28;20084;-70
2023/01/24 08:00:15;;;;;;;15.97;7.07;;;;;;;;;;5062392;28;20445;-71
2023/01/24 08:02:41;;;;;;;14.57;6.87;;;;;;;;;;5062368;28;20042;-70
2023/01/24 08:05:07;;;;;;;15.27;7.33;;;;;;;;;;5079027;28;20204;-70
2023/01/24 08:07:33;;;;;;;17.00;7.33;;;;;;;;;;5062837;28;20137;-70
2023/01/24 08:09:58;;;;;;;15.60;7.07;;;;;;;;;;5062387;28;20047;-70
2023/01/24 08:12:24;;;;;;;18.37;7.83;;;;;;;;;;5062185;28;20126;-70
2023/01/24 08:14:50;;;;;;;14.37;6.57;;;;;;;;;;5062306;28;20047;-70
2023/01/24 08:17:16;;;;;;;17.83;7.17;;;;;;;;;;5062272;28;20027;-71
2023/01/24 08:19:41;;;;;;;14.03;6.60;;;;;;;;;;5078768;28;20039;-70
2023/01/24 08:22:07;;;;;;;12.80;6.27;;;;;;;;;;5078461;28;20038;-70
2023/01/24 08:24:33;;;;;;;14.60;6.60;;;;;;;;;;5062218;28;20108;-70
2023/01/24 08:26:59;;;;;;;13.73;6.30;;;;;;;;;;5078641;28;20047;-71
2023/01/24 08:29:25;;;;;;;12.80;6.70;;;;;;;;;;5078566;28;20036;-69
2023/01/24 08:31:50;;;;;;;12.03;5.90;;;;;;;;;;5078586;28;20035;-70
2023/01/24 08:34:16;;;;;;;15.00;6.57;;;;;;;;;;5061979;28;20035;-70
2023/01/24 08:36:41;;;;;;;15.20;6.93;;;;;;;;;;5078405;28;20032;-71
2023/01/24 08:39:07;;;;;;;11.57;6.80;;;;;;;;;;5078277;28;20039;-69
2023/01/24 08:41:33;;;;;;;16.43;6.40;;;;;;;;;;5061825;28;20036;-71
2023/01/24 08:43:58;;;;;;;14.50;6.63;;;;;;;;;;5061554;28;20045;-71
2023/01/24 08:46:25;;;;;;;16.90;6.90;;;;;;;;;;5061677;28;20030;-70
2023/01/24 08:48:50;;;;;;;13.97;6.57;;;;;;;;;;5061421;28;20039;-71
2023/01/24 08:51:16;;;;;;;12.67;7.13;;;;;;;;;;5061582;28;20088;-70
2023/01/24 08:53:42;;;;;;;12.23;6.43;;;;;;;;;;5061490;28;20034;-70
2023/01/24 08:56:07;;;;;;;13.63;6.63;;;;;;;;;;5095144;28;20038;-69
2023/01/24 08:58:33;;;;;;;13.90;6.57;;;;;;;;;;5061808;28;20036;-70
2023/01/24 09:00:59;;;;;;;13.10;6.87;;;;;;;;;;5078180;28;20047;-70
2023/01/24 09:03:26;;;;;;;14.60;6.63;;;;;;;;;;5077912;28;20058;-70
2023/01/24 09:05:57;;;;;;;14.40;6.93;;;;;;;;;;5077254;28;20124;-70
2023/01/24 09:08:22;;;;;;;14.23;6.80;;;;;;;;;;5061363;28;20436;-70
2023/01/24 09:10:48;;;;;;;16.27;6.13;;;;;;;;;;5061186;28;20040;-70
2023/01/24 09:13:14;;;;;;;15.40;6.50;;;;;;;;;;5061110;28;20038;-70
2023/01/24 09:15:39;;;;;;;14.17;6.83;;;;;;;;;;5061335;28;20093;-69
2023/01/24 09:18:05;;;;;;;14.57;6.70;;;;;;;;;;5061418;28;20128;-70
2023/01/24 09:20:30;;;;;;;15.63;7.03;;;;;;;;;;5061152;28;20347;-71
2023/01/24 09:22:56;;;;;;;10.93;6.10;;;;;;;;;;5094704;28;20080;-71
2023/01/24 09:25:22;;;;;;;15.40;7.30;;;;;;;;;;5077679;28;20050;-71
2023/01/24 09:27:55;;;;;;;11.33;5.97;;;;;;;;;;5077564;28;20188;-70
2023/01/24 09:30:21;;;;;;;10.97;5.93;;;;;;;;;;5060967;28;20326;-70
2023/01/24 09:32:53;;;;;;;13.43;6.70;;;;;;;;;;5094567;28;20046;-70
2023/01/24 09:35:18;;;;;;;13.73;6.93;;;;;;;;;;5077812;28;20047;-70
2023/01/24 09:37:44;;;;;;;14.90;6.80;;;;;;;;;;5077965;28;20035;-69
2023/01/24 09:40:21;;;;;;;14.93;7.07;;;;;;;;;;5112349;28;20031;-68
2023/01/24 09:42:56;;;;;;;12.47;6.10;;;;;;;;;;5077732;28;20031;-71
2023/01/24 09:45:29;;;;;;;11.13;6.67;;;;;;;;;;5073752;28;20505;-70
2023/01/24 09:48:00;;;;;;;14.73;6.73;;;;;;;;;;5097055;28;20166;-70
2023/01/24 09:50:32;;;;;;;11.20;6.53;;;;;;;;;;5096559;28;20119;-71
2023/01/24 09:52:58;;;;;;;12.53;6.43;;;;;;;;;;5110707;28;20504;-70
2023/01/24 09:55:26;;;;;;;14.60;6.80;;;;;;;;;;5096264;28;20062;-69
2023/01/24 09:57:58;;;;;;;11.23;6.73;;;;;;;;;;5078819;28;20031;-70
2023/01/24 10:00:25;;;;;;;14.83;7.10;;;;;;;;;;5094525;28;20125;-70
2023/01/24 10:02:52;;;;;;;12.60;6.67;;;;;;;;;;5096260;28;20024;-70
2023/01/24 10:05:18;;;;;;;18.27;6.80;;;;;;;;;;5127046;28;20383;-70
2023/01/24 10:07:55;;;;;;;19.13;7.13;;;;;;;;;;5096588;28;20099;-71
2023/01/24 10:10:42;;;;;;;12.73;6.97;;;;;;;;;;5110747;28;20457;-70
2023/01/24 10:13:07;;;;;;;13.93;7.30;;;;;;;;;;5112000;28;20461;-71
2023/01/24 10:15:51;;;;;;;14.13;6.93;;;;;;;;;;5096488;28;20046;-70
2023/01/24 10:18:20;;;;;;;14.23;7.13;;;;;;;;;;5116384;27;20481;-69
2023/01/24 10:21:04;;;;;;;14.70;6.33;;;;;;;;;;5101153;27;20103;-69
2023/01/24 10:23:33;;;;;;;14.80;7.43;;;;;;;;;;5113372;28;20370;-71
2023/01/24 10:26:03;;;;;;;16.13;7.53;;;;;;;;;;5091160;27;20410;-69
2023/01/24 10:28:38;;;;;;;17.65;6.97;;;;;;;;;;5096850;27;20042;-68
2023/01/24 10:31:07;;;;;;;14.23;6.87;;;;;;;;;;5133976;27;20031;-69
2023/01/24 10:33:53;;;;;;;10.70;7.17;;;;;;;;;;5099776;27;20172;-68
2023/01/24 10:36:30;;;;;;;11.90;5.97;;;;;;;;;;5081817;27;20039;-69
2023/01/24 10:38:56;;;;;;;11.87;6.87;;;;;;;;;;5135429;27;20027;-69
2023/01/24 10:41:24;;;;;;;11.50;5.70;;;;;;;;;;5117737;27;20032;-69
2023/01/24 10:43:54;;;;;;;12.10;6.70;;;;;;;;;;5100514;27;20046;-69
2023/01/24 10:46:26;;;;;;;16.83;6.75;;;;;;;;;;5116268;27;20027;-69
2023/01/24 10:48:53;;;;;;;13.37;6.70;;;;;;;;;;5116159;27;20046;-69
2023/01/24 10:51:24;;;;;;;11.27;6.33;;;;;;;;;;5099082;27;20038;-67
2023/01/24 10:53:50;;;;;;;11.47;6.53;;;;;;;;;;5116440;27;20011;-68
2023/01/24 10:56:17;;;;;;;14.90;7.30;;;;;;;;;;5116917;27;20487;-68
2023/01/24 10:58:54;;;;;;;12.33;6.47;;;;;;;;;;5133595;27;20077;-68
2023/01/24 11:01:30;;;;;;;15.37;6.57;;;;;;;;;;5114126;27;20027;-68
2023/01/24 11:03:56;;;;;;;12.93;5.93;;;;;;;;;;5130598;27;20134;-68
2023/01/24 11:06:28;;;;;;;11.73;5.60;;;;;;;;;;5115195;27;20430;-68
2023/01/24 11:08:55;;;;;;;14.03;6.47;;;;;;;;;;5081740;27;20336;-69
2023/01/24 11:11:23;;;;;;;16.53;5.97;;;;;;;;;;5115427;27;20035;-69
2023/01/24 11:13:53;;;;;;;11.07;6.60;;;;;;;;;;5113455;27;20031;-68
2023/01/24 11:16:21;;;;;;;11.00;6.27;;;;;;;;;;5116704;27;20356;-68
2023/01/24 11:19:06;;;;;;;11.87;6.57;;;;;;;;;;5082540;27;20099;-69
2023/01/24 11:21:32;;;;;;;15.80;7.07;;;;;;;;;;5098919;27;20206;-68
2023/01/24 11:24:13;;;;;;;14.20;7.07;;;;;;;;;;5116677;27;20045;-67
2023/01/24 11:26:53;;;;;;;14.77;7.00;;;;;;;;;;5133691;27;20084;-67
2023/01/24 11:29:19;;;;;;;16.87;7.13;;;;;;;;;;5098947;27;20039;-68
2023/01/24 11:31:47;;;;;;;13.80;7.30;;;;;;;;;;5099105;27;20035;-67
2023/01/24 11:34:28;;;;;;;12.00;7.47;;;;;;;;;;5099511;27;20046;-67
2023/01/24 11:36:54;;;;;;;16.55;6.95;;;;;;;;;;5098710;27;20126;-68
2023/01/24 11:39:25;;;;;;;17.90;6.73;;;;;;;;;;5099252;27;20131;-68
2023/01/24 11:41:50;;;;;;;;;;;;;;;;;;5116450;27;20027;-67
2023/01/24 11:44:35;;;;;;;14.37;6.77;;;;;;;;;;5133373;27;19930;-70
2023/01/24 11:47:15;;;;;;;13.03;6.60;;;;;;;;;;5115163;27;20031;-68
2023/01/24 11:49:46;;;;;;;13.73;6.47;;;;;;;;;;5082304;27;20042;-69
2023/01/24 11:52:39;;;;;;;14.80;6.87;;;;;;;;;;5115933;27;20087;-68
2023/01/24 11:55:23;;;;;;;13.50;7.37;;;;;;;;;;5083214;27;20418;-69
2023/01/24 11:58:00;;;;;;;12.40;6.33;;;;;;;;;;5098931;27;20093;-68
2023/01/24 12:00:29;;;;;;;11.97;6.50;;;;;;;;;;5098768;27;20461;-69
2023/01/24 12:03:13;;;;;;;13.13;6.90;;;;;;;;;;5098463;27;20039;-69
2023/01/24 12:05:44;;;;;;;17.97;8.47;;;;;;;;;;5115399;27;20564;-70
2023/01/24 12:08:16;;;;;;;14.33;7.27;;;;;;;;;;5098939;27;20434;-69
2023/01/24 12:10:54;;;;;;;15.07;7.77;;;;;;;;;;5098933;27;20091;-69
2023/01/24 12:13:23;;;;;;;12.10;6.10;;;;;;;;;;5133171;27;20126;-70
2023/01/24 12:16:03;;;;;;;11.00;6.43;;;;;;;;;;5115348;27;20043;-68
2023/01/24 12:18:29;;;;;;;14.53;7.00;;;;;;;;;;5080284;27;20041;-68
2023/01/24 12:20:54;;;;;;;14.63;6.80;;;;;;;;;;5081091;27;20031;-69
2023/01/24 12:23:24;;;;;;;11.97;6.23;;;;;;;;;;5115415;27;20484;-68
2023/01/24 12:25:51;;;;;;;11.17;6.10;;;;;;;;;;5132375;27;20079;-68
2023/01/24 12:28:39;;;;;;;12.10;6.47;;;;;;;;;;5092222;28;20481;-68
2023/01/24 12:31:06;;;;;;;13.93;6.00;;;;;;;;;;5113177;28;20031;-68
2023/01/24 12:33:47;;;;;;;14.20;6.63;;;;;;;;;;5061124;28;20469;-68
2023/01/24 12:36:13;;;;;;;9.33;5.47;;;;;;;;;;5061369;28;20465;-67
2023/01/24 12:38:44;;;;;;;11.03;5.93;;;;;;;;;;5078196;28;20047;-69
2023/01/24 12:41:18;;;;;;;12.05;5.75;;;;;;;;;;5060441;28;20035;-67
2023/01/24 12:44:13;;;;;;;10.77;5.87;;;;;;;;;;5061065;28;20483;-70
2023/01/24 12:46:48;;;;;;;9.80;6.30;;;;;;;;;;5067407;28;20047;-69
2023/01/24 12:49:13;;;;;;;18.77;6.50;;;;;;;;;;5060889;28;20032;-70
2023/01/24 12:51:51;;;;;;;17.30;6.43;;;;;;;;;;5078021;28;20088;-70
2023/01/24 12:54:20;;;;;;;12.03;6.80;;;;;;;;;;5061217;28;20377;-68
2023/01/24 12:57:04;;;;;;;12.43;5.83;;;;;;;;;;5078039;28;20039;-69
2023/01/24 12:59:33;;;;;;;15.17;6.17;;;;;;;;;;5065446;27;20487;-68
2023/01/24 13:01:59;;;;;;;9.30;5.77;;;;;;;;;;5098066;27;20039;-69
2023/01/24 13:04:35;;;;;;;10.97;5.63;;;;;;;;;;5097860;27;20050;-69
2023/01/24 13:07:19;;;;;;;11.47;6.50;;;;;;;;;;5098058;27;20385;-68
2023/01/24 13:09:45;;;;;;;10.70;5.73;;;;;;;;;;5115536;27;20464;-68
2023/01/24 13:12:16;;;;;;;12.80;5.93;;;;;;;;;;5114865;27;20519;-68
2023/01/24 13:14:49;;;;;;;9.85;5.82;;;;;;;;;;5098310;27;20049;-68
2023/01/24 13:17:26;;;;;;;10.77;5.57;;;;;;;;;;5132559;27;20043;-68
2023/01/24 13:20:11;;;;;;;10.53;5.70;;;;;;;;;;5115149;27;20062;-68
2023/01/24 13:22:52;;;;;;;13.43;5.87;;;;;;;;;;5098077;27;20053;-69
2023/01/24 13:25:31;;;;;;;14.17;6.10;;;;;;;;;;5098278;28;20043;-69
2023/01/24 13:27:56;;;;;;;10.10;5.70;;;;;;;;;;5097973;28;20172;-69
2023/01/24 13:30:34;;;;;;;9.03;5.80;;;;;;;;;;5098035;28;20463;-70
2023/01/24 13:33:02;;;;;;;9.83;5.90;;;;;;;;;;5097829;28;20380;-72
2023/01/24 13:35:28;;;;;;;10.00;5.57;;;;;;;;;;5114167;28;20027;-69
2023/01/24 13:38:05;;;;;;;14.07;6.30;;;;;;;;;;5114125;28;20373;-70
2023/01/24 13:40:34;;;;;;;9.83;5.60;;;;;;;;;;5114712;28;20043;-68
2023/01/24 13:43:01;;;;;;;12.80;6.47;;;;;;;;;;5097458;28;20365;-69
2023/01/24 13:45:30;;;;;;;10.93;5.70;;;;;;;;;;5076617;28;20039;-69
2023/01/24 13:47:58;;;;;;;12.93;6.20;;;;;;;;;;5114205;28;20031;-69
2023/01/24 13:50:27;;;;;;;10.50;5.63;;;;;;;;;;5066683;28;20065;-69
2023/01/24 13:52:54;;;;;;;11.73;5.90;;;;;;;;;;5078230;28;20119;-69
2023/01/24 13:55:21;;;;;;;11.73;5.83;;;;;;;;;;5064239;28;20031;-68
2023/01/24 13:57:48;;;;;;;9.87;6.03;;;;;;;;;;5064642;28;20036;-68
2023/01/24 14:00:17;;;;;;;10.60;5.90;;;;;;;;;;5081362;28;20509;-68
2023/01/24 14:02:49;;;;;;;11.27;5.90;;;;;;;;;;5063959;28;20437;-68
2023/01/24 14:05:33;;;;;;;10.67;5.90;;;;;;;;;;5064212;28;20051;-69
2023/01/24 14:08:01;;;;;;;10.37;6.57;;;;;;;;;;5080748;28;20516;-68
2023/01/24 14:10:46;;;;;;;11.93;5.93;;;;;;;;;;5097689;28;20058;-67
2023/01/24 14:13:31;;;;;;;12.77;6.27;;;;;;;;;;5080054;28;20066;-69
2023/01/24 14:15:56;;;;;;;12.43;6.00;;;;;;;;;;5063871;28;20036;-70
2023/01/24 14:18:40;;;;;;;10.83;5.97;;;;;;;;;;5080767;28;20031;-71
2023/01/24 14:21:13;;;;;;;11.77;5.87;;;;;;;;;;5063586;28;20035;-70
2023/01/24 14:23:39;;;;;;;15.80;6.17;;;;;;;;;;5062755;28;20032;-71
2023/01/24 14:26:05;;;;;;;13.07;6.80;;;;;;;;;;5064178;28;20038;-69
2023/01/24 14:28:33;;;;;;;13.93;6.87;;;;;;;;;;5097559;28;20122;-70
2023/01/24 14:31:17;;;;;;;19.87;9.60;;;;;;;;;;5080721;28;20047;-69
2023/01/24 14:33:49;;;;;;;9.73;6.13;;;;;;;;;;5096468;28;20067;-69
2023/01/24 14:36:24;;;;;;;13.47;6.13;;;;;;;;;;5080477;28;20039;-70
2023/01/24 14:39:09;;;;;;;11.77;6.10;;;;;;;;;;5080939;28;20035;-71
2023/01/24 14:41:36;;;;;;;12.40;6.30;;;;;;;;;;5096811;28;20059;-70
2023/01/24 14:44:02;;;;;;;12.33;6.20;;;;;;;;;;5113999;28;20035;-68
2023/01/24 14:46:28;;;;;;;12.90;6.57;;;;;;;;;;5098018;27;20354;-68
2023/01/24 14:48:53;;;;;;;9.30;5.80;;;;;;;;;;5097853;27;20031;-69
2023/01/24 14:51:22;;;;;;;9.23;6.47;;;;;;;;;;5097215;27;20031;-69
2023/01/24 14:53:50;;;;;;;12.50;6.30;;;;;;;;;;5113708;27;20419;-68
2023/01/24 14:56:16;;;;;;;14.80;7.20;;;;;;;;;;5114531;27;20062;-70
2023/01/24 14:58:42;;;;;;;11.10;6.30;;;;;;;;;;5097508;27;20059;-70
2023/01/24 15:01:43;;;;;;;12.13;6.87;;;;;;;;;;5097973;27;20075;-70
2023/01/24 15:04:20;;;;;;;14.15;8.02;;;;;;;;;;5044536;28;20155;-69
2023/01/24 15:07:02;;;;;;;12.77;6.33;;;;;;;;;;5088869;27;20089;-69
2023/01/24 15:09:27;;;;;;;11.40;6.60;;;;;;;;;;5113528;27;20122;-68
2023/01/24 15:11:53;;;;;;;12.20;7.10;;;;;;;;;;5097459;27;20131;-69
2023/01/24 15:14:19;;;;;;;14.13;7.57;;;;;;;;;;5092511;27;20081;-69
2023/01/24 15:16:52;;;;;;;15.07;6.90;;;;;;;;;;5112628;27;20035;-70
2023/01/24 15:19:20;;;;;;;10.43;7.07;;;;;;;;;;5114950;27;20054;-69